Ratmalana, Sri Lanka

10:20 PM IST on September 19, 2014 (GMT +0530)
Bandaranaike International | Change Station
CLOSE
Current Station
Airport
Location: Katunayake,
Elevation: 26 ft
Nearby Weather Stations

Elev 26 ft 7.18 °N, 79.88 °E | Updated 40 minutes ago

Scattered Clouds
Scattered Clouds
82 °F
Feels Like 90 °F
N
10
Wind Variable Wind from SW

Today
High -- | Low -- °F
--% Chance of Precip.
Yesterday
High -- | Low -- °F
Precip. -- in
6:00 AM 6:08 PM
Waning Crescent, 18% visible
Pressure 29.86 in
Visibility 6.2 miles
Clouds Scattered Clouds 1600 ft
Heat Index 90 °F
Dew Point 75 °F
Humidity 79%
Rainfall 0.00 in
Snow Depth Not available.
UV 0 out of 12
Pollen Not available.
Air Quality Not available.
Flu Activity Not available.
METAR VCBI 191610Z 22009KT 9999 SCT016 28/24 Q1011 NOSIG

More Conditions Fewer Conditions

Pressure 29.86 in
Visibility 6.2 miles
Clouds Scattered Clouds 1600 ft
Heat Index 90 °F
Dew Point 75 °F
Humidity 79%
Rainfall 0.00 in
Snow Depth Not available.
UV 0 out of 12
Pollen Not available.
Air Quality Not available.
Flu Activity Not available.
METAR VCBI 191610Z 22009KT 9999 SCT016 28/24 Q1011 NOSIG

More Conditions Fewer Conditions

10-Day Weather Forecast

Almanac

Astronomy

Sep. 19, 2014 Rise Set
Actual Time 6:00 AM IST 6:08 PM IST
Civil Twilight 5:39 AM IST 6:29 PM IST
Nautical Twilight 5:15 AM IST 6:53 PM IST
Astronomical Twilight 4:51 AM IST 7:17 PM IST
Moon 2:03 AM IST 2:40 PM IST
Length of Visible Light 12h 49m
Length of Day
12h 07m
Tomorrow will be 0m 23s shorter.
Waning Crescent, 18% of the Moon is Illuminated
Today
Waning Crescent
Sep 24
New
Oct 1
First Quarter
Oct 8
Full
Oct 15
Last Quarter

Today's Extremes

Country Highs Country Lows

Community

WunderPhotos

Upload Photos

1,754,650 photos uploaded!

Nearby

Snow Depth

Not available.

Earthquake Activity

City Distance Mag. Time & Date
No recent earthquake activity has been reported nearby.
Minimum magnitude displayed is 2.5.

Coastal Water Temperatures

Place Temperature
No Stations Reporting

Nearby Weather Stations